This is the latest recevied weather packets stored in our database for station/object SP8C-13. If no packets are shown the sender has not sent any weather packets the latest 10 day(s).
| Time | Temp. | Humidity | Pressure | Rain* | Wind** | Luminosity | Snow |
|---|---|---|---|---|---|---|---|
| 1777034247 | 15.56° C | 45% | 1013.6 hPa | - | - | - | - |
| 1777032447 | 14.44° C | 47% | 1013.7 hPa | - | - | - | - |
| 1777030647 | 15° C | 44% | 1013.9 hPa | - | - | - | - |
| 1777028847 | 15.56° C | 45% | 1014.1 hPa | - | - | - | - |
| 1777027047 | 13.89° C | 46% | 1014.3 hPa | - | - | - | - |
| 1777025246 | 12.78° C | 48% | 1014.5 hPa | - | - | - | - |
| 1777023446 | 12.78° C | 47% | 1014.6 hPa | - | - | - | - |
| 1777021646 | 12.78° C | 45% | 1014.7 hPa | - | - | - | - |
| 1777019846 | 11.67° C | 47% | 1014.9 hPa | - | - | - | - |
| 1777018046 | 11.11° C | 47% | 1014.9 hPa | - | - | - | - |
| 1777016245 | 10.56° C | 47% | 1014.9 hPa | - | - | - | - |
| 1777014445 | 11.11° C | 44% | 1015 hPa | - | - | - | - |
| 1777012645 | 9.44° C | 47% | 1014.9 hPa | - | - | - | - |
| 1777010845 | 9.44° C | 48% | 1015 hPa | - | - | - | - |
| 1777009044 | 8.89° C | 49% | 1014.9 hPa | - | - | - | - |
| 1777007242 | 8.89° C | 50% | 1014.8 hPa | - | - | - | - |
| 1777005442 | 7.78° C | 55% | 1014.9 hPa | - | - | - | - |
| 1777003642 | 5° C | 57% | 1014.8 hPa | - | - | - | - |
| 1777001841 | 3.33° C | 63% | 1014.5 hPa | - | - | - | - |
| 1777000041 | 3.33° C | 62% | 1014.3 hPa | - | - | - | - |
| 1776998241 | 3.33° C | 62% | 1014.3 hPa | - | - | - | - |
| 1776996441 | 3.33° C | 62% | 1014.1 hPa | - | - | - | - |
| 1776994641 | 3.89° C | 60% | 1014.1 hPa | - | - | - | - |
| 1776992841 | 4.44° C | 59% | 1013.8 hPa | - | - | - | - |
| 1776991041 | 4.44° C | 58% | 1014.1 hPa | - | - | - | - |
* Rain since midnight (hover to see other rain measurements)
** Current wind speed in m/s (hover to see current wind gust speed)